createdAt,value
2018-12-01T00:00:31.603Z,17.83
2018-12-01T00:03:02.117Z,17.30
2018-12-01T00:05:33.946Z,17.30
2018-12-01T00:08:05.976Z,18.47
2018-12-01T00:10:36.910Z,16.70
2018-12-01T00:13:06.829Z,18.20
2018-12-01T00:15:38.699Z,17.20
2018-12-01T00:18:10.999Z,19.53
2018-12-01T00:20:41.767Z,18.17
2018-12-01T00:23:14.277Z,18.23
2018-12-01T00:25:46.168Z,17.53
2018-12-01T00:28:17.052Z,17.63
2018-12-01T00:30:52.320Z,18.60
2018-12-01T00:33:23.813Z,18.97
2018-12-01T00:35:54.958Z,18.63
2018-12-01T00:38:25.018Z,20.20
2018-12-01T00:40:56.319Z,18.70
2018-12-01T00:43:27.973Z,19.67
2018-12-01T00:45:57.598Z,18.67
2018-12-01T00:48:28.645Z,18.43
2018-12-01T00:50:59.061Z,19.40
2018-12-01T00:53:30.412Z,19.73
2018-12-01T00:56:00.243Z,18.10
2018-12-01T00:58:34.969Z,20.63
2018-12-01T01:01:07.064Z,19.40
2018-12-01T01:03:37.044Z,19.90
2018-12-01T01:06:08.632Z,20.40
2018-12-01T01:08:38.227Z,19.80
2018-12-01T01:11:18.155Z,18.97
2018-12-01T01:13:54.043Z,19.73
2018-12-01T01:23:36.882Z,19.50
2018-12-01T01:26:16.695Z,18.73
2018-12-01T01:29:00.786Z,19.17
2018-12-01T01:31:33.265Z,19.17
2018-12-01T01:34:04.951Z,18.70
2018-12-01T01:36:35.347Z,19.40
2018-12-01T01:39:08.671Z,18.90
2018-12-01T01:41:41.500Z,20.20
2018-12-01T01:44:14.150Z,20.50
2018-12-01T01:46:46.509Z,20.17
2018-12-01T01:49:18.226Z,19.40
2018-12-01T01:51:48.636Z,21.03
2018-12-01T01:54:18.968Z,19.53
2018-12-01T01:56:49.504Z,20.33
2018-12-01T01:59:20.607Z,20.97
2018-12-01T02:01:50.800Z,19.07
2018-12-01T02:04:20.428Z,18.37
2018-12-01T02:06:51.195Z,18.77
2018-12-01T02:09:21.423Z,19.73
2018-12-01T02:11:52.311Z,19.60
2018-12-01T02:14:26.308Z,21.10
2018-12-01T02:16:57.955Z,18.93
2018-12-01T02:19:27.543Z,19.77
2018-12-01T02:21:58.588Z,20.13
2018-12-01T02:24:29.417Z,19.37
2018-12-01T02:26:59.377Z,20.33
2018-12-01T02:29:30.318Z,19.60
2018-12-01T02:32:01.456Z,19.33
2018-12-01T02:34:30.508Z,20.00
2018-12-01T02:37:01.468Z,19.53
2018-12-01T02:39:33.057Z,19.57
2018-12-01T02:42:03.713Z,18.40
2018-12-01T02:44:59.816Z,20.33
2018-12-01T02:47:31.544Z,20.00
2018-12-01T02:50:02.076Z,18.70
2018-12-01T02:52:31.778Z,20.50
2018-12-01T02:55:03.563Z,21.03
2018-12-01T02:57:38.644Z,19.50
2018-12-01T03:00:12.324Z,19.57
2018-12-01T03:02:43.707Z,20.10
2018-12-01T03:05:13.954Z,20.10
2018-12-01T03:07:45.070Z,20.77
2018-12-01T03:10:15.624Z,20.63
2018-12-01T03:12:45.678Z,20.63
2018-12-01T03:15:18.665Z,20.30
2018-12-01T03:17:50.815Z,21.40
2018-12-01T03:20:20.769Z,21.20
2018-12-01T03:22:51.709Z,19.70
2018-12-01T03:25:23.186Z,20.70
2018-12-01T03:27:56.010Z,21.90
2018-12-01T03:30:27.831Z,20.23
2018-12-01T03:32:58.781Z,20.60
2018-12-01T03:35:29.747Z,21.10
2018-12-01T03:38:02.120Z,21.33
2018-12-01T03:40:49.096Z,21.90
2018-12-01T03:43:18.900Z,21.53
2018-12-01T03:45:50.810Z,21.03
2018-12-01T03:48:20.584Z,21.43
2018-12-01T03:50:57.529Z,21.83
2018-12-01T03:53:29.090Z,21.90
2018-12-01T03:55:59.010Z,22.37
2018-12-01T03:58:30.009Z,22.90
2018-12-01T04:01:01.190Z,21.97
2018-12-01T04:03:31.388Z,22.33
2018-12-01T04:06:04.805Z,22.00
2018-12-01T04:08:34.902Z,24.70
2018-12-01T04:11:06.772Z,23.90
2018-12-01T04:13:39.019Z,23.40
2018-12-01T04:16:09.850Z,22.07
2018-12-01T04:18:41.988Z,22.80
2018-12-01T04:21:13.977Z,23.10
2018-12-01T04:23:44.692Z,24.30
2018-12-01T04:26:15.068Z,24.10
2018-12-01T04:28:46.100Z,22.93
2018-12-01T04:31:16.095Z,21.80
2018-12-01T04:33:47.062Z,22.50
2018-12-01T04:36:18.005Z,24.67
2018-12-01T04:38:48.647Z,24.73
2018-12-01T04:41:19.087Z,24.17
2018-12-01T04:43:50.107Z,23.97
2018-12-01T04:46:21.327Z,24.50
2018-12-01T04:48:50.993Z,23.73
2018-12-01T04:51:20.687Z,23.20
2018-12-01T04:53:50.278Z,23.73
2018-12-01T04:56:20.109Z,23.17
2018-12-01T04:58:51.226Z,21.77
2018-12-01T05:01:20.810Z,22.70
2018-12-01T05:03:53.234Z,23.30
2018-12-01T05:06:24.101Z,23.90
2018-12-01T05:08:56.037Z,24.20
2018-12-01T05:11:26.728Z,23.20
2018-12-01T05:13:57.070Z,23.57
2018-12-01T05:16:27.447Z,22.67
2018-12-01T05:18:58.306Z,23.00
2018-12-01T05:21:28.889Z,24.20
2018-12-01T05:23:59.412Z,23.13
2018-12-01T05:26:30.039Z,22.17
2018-12-01T05:29:00.374Z,23.53
2018-12-01T05:31:30.597Z,23.80
2018-12-01T05:34:01.394Z,23.10
2018-12-01T05:36:32.764Z,25.50
2018-12-01T05:39:03.502Z,23.37
2018-12-01T05:41:34.096Z,22.90
2018-12-01T05:44:04.352Z,23.17
2018-12-01T05:46:35.328Z,23.23
2018-12-01T05:49:06.011Z,24.10
2018-12-01T05:51:36.038Z,24.00
2018-12-01T05:54:10.651Z,24.63
2018-12-01T05:56:42.537Z,24.50
2018-12-01T05:59:20.551Z,25.80
2018-12-01T06:01:51.454Z,23.40
2018-12-01T06:04:21.144Z,25.03
2018-12-01T06:06:52.775Z,25.10
2018-12-01T06:09:24.621Z,22.83
2018-12-01T06:11:54.489Z,23.50
2018-12-01T06:14:24.550Z,24.83
2018-12-01T06:16:56.489Z,22.97
2018-12-01T06:19:27.777Z,23.87
2018-12-01T06:21:59.523Z,25.13
2018-12-01T06:24:29.966Z,24.60
2018-12-01T06:27:00.263Z,23.90
2018-12-01T06:29:31.395Z,25.30
2018-12-01T06:32:01.379Z,23.70
2018-12-01T06:34:31.002Z,24.50
2018-12-01T06:37:02.670Z,25.77
2018-12-01T06:39:33.342Z,26.20
2018-12-01T06:42:04.069Z,24.87
2018-12-01T06:44:33.737Z,24.30
2018-12-01T06:47:04.554Z,24.60
2018-12-01T06:49:35.582Z,25.03
2018-12-01T06:52:05.856Z,23.53
2018-12-01T06:54:36.788Z,23.80
2018-12-01T06:57:07.624Z,25.57
2018-12-01T06:59:37.910Z,26.43
2018-12-01T07:02:08.808Z,27.37
2018-12-01T07:04:39.674Z,27.93
2018-12-01T07:07:10.221Z,25.67
2018-12-01T07:09:47.151Z,25.50
2018-12-01T07:12:19.151Z,25.57
2018-12-01T07:14:48.890Z,27.50
2018-12-01T07:17:19.911Z,26.10
2018-12-01T07:19:49.686Z,25.60
2018-12-01T07:22:20.909Z,26.03
2018-12-01T07:24:51.805Z,25.33
2018-12-01T07:27:21.351Z,25.30
2018-12-01T07:29:57.968Z,24.67
2018-12-01T07:32:25.036Z,26.07
2018-12-01T07:34:56.959Z,26.97
2018-12-01T07:37:27.895Z,25.57
2018-12-01T07:39:57.762Z,24.80
2018-12-01T07:42:29.709Z,23.03
2018-12-01T07:44:59.340Z,25.80
2018-12-01T07:47:30.155Z,24.20
2018-12-01T07:50:00.194Z,24.83
2018-12-01T07:52:30.788Z,24.67
2018-12-01T07:55:00.835Z,26.70
2018-12-01T07:57:31.941Z,25.10
2018-12-01T08:00:02.267Z,24.70
2018-12-01T08:05:12.342Z,24.30
2018-12-01T08:07:43.377Z,25.80
2018-12-01T08:10:14.846Z,26.90
2018-12-01T08:12:45.159Z,26.73
2018-12-01T08:15:17.700Z,26.20
2018-12-01T08:17:49.267Z,25.20
2018-12-01T08:20:20.205Z,25.33
2018-12-01T08:22:50.980Z,24.87
2018-12-01T08:25:22.050Z,25.37
2018-12-01T08:27:53.732Z,25.43
2018-12-01T08:30:33.253Z,24.50
2018-12-01T08:33:02.880Z,26.50
2018-12-01T08:35:33.348Z,26.70
2018-12-01T08:38:04.310Z,26.97
2018-12-01T08:40:35.314Z,24.90
2018-12-01T08:43:05.518Z,26.43
2018-12-01T08:45:38.423Z,25.73
2018-12-01T08:48:09.577Z,26.03
2018-12-01T08:50:43.217Z,25.63
2018-12-01T08:53:13.242Z,25.90
2018-12-01T08:55:44.360Z,27.50
2018-12-01T08:58:15.359Z,26.87
2018-12-01T09:00:46.048Z,28.27
2018-12-01T09:03:20.031Z,26.87
2018-12-01T09:05:53.011Z,26.27
2018-12-01T09:08:24.311Z,28.40
2018-12-01T09:10:56.537Z,28.07
2018-12-01T09:13:27.322Z,27.43
2018-12-01T09:15:57.811Z,28.17
2018-12-01T09:18:28.538Z,26.80
2018-12-01T09:20:59.197Z,28.50
2018-12-01T09:23:30.014Z,26.10
2018-12-01T09:26:00.419Z,26.20
2018-12-01T09:28:30.623Z,27.57
2018-12-01T09:31:01.502Z,27.83
2018-12-01T09:33:32.617Z,29.40
2018-12-01T09:36:03.335Z,27.57
2018-12-01T09:38:33.946Z,25.90
2018-12-01T09:41:04.501Z,27.67
2018-12-01T09:43:35.267Z,27.77
2018-12-01T09:46:07.604Z,29.33
2018-12-01T09:48:38.567Z,28.00
2018-12-01T09:51:09.535Z,27.73
2018-12-01T09:53:40.550Z,27.43
2018-12-01T09:56:10.414Z,27.73
2018-12-01T09:58:41.596Z,27.00
2018-12-01T10:01:11.876Z,28.00
2018-12-01T10:03:43.787Z,27.10
2018-12-01T10:06:16.710Z,26.63
2018-12-01T10:08:46.617Z,26.30
2018-12-01T10:11:16.516Z,28.13
2018-12-01T10:13:47.744Z,28.67
2018-12-01T10:16:17.652Z,28.03
2018-12-01T10:18:48.748Z,29.20
2018-12-01T10:21:19.482Z,30.50
2018-12-01T10:23:50.709Z,29.63
2018-12-01T10:26:20.691Z,27.53
2018-12-01T10:28:50.738Z,28.73
2018-12-01T10:31:22.054Z,27.83
2018-12-01T10:33:52.579Z,28.90
2018-12-01T10:36:24.605Z,28.50
2018-12-01T10:38:56.574Z,28.57
2018-12-01T10:41:28.318Z,28.27
2018-12-01T10:44:00.897Z,29.33
2018-12-01T10:46:31.902Z,28.07
2018-12-01T10:49:03.810Z,29.73
2018-12-01T10:51:34.427Z,30.30
2018-12-01T10:54:07.123Z,28.03
2018-12-01T10:56:37.909Z,29.70
2018-12-01T10:59:08.856Z,30.40
2018-12-01T11:02:42.958Z,29.80
2018-12-01T11:05:13.000Z,28.80
2018-12-01T11:07:43.830Z,30.20
2018-12-01T11:10:16.482Z,30.70
2018-12-01T11:12:45.192Z,31.07
2018-12-01T11:15:16.631Z,30.17
2018-12-01T11:17:49.100Z,31.17
2018-12-01T11:20:19.747Z,30.00
2018-12-01T11:22:52.053Z,30.40
2018-12-01T11:25:22.036Z,30.90
2018-12-01T11:27:51.866Z,30.40
2018-12-01T11:30:21.647Z,31.87
2018-12-01T11:32:53.161Z,30.57
2018-12-01T11:35:25.126Z,31.80
2018-12-01T11:37:57.020Z,31.60
2018-12-01T11:40:28.056Z,30.73
2018-12-01T11:42:58.336Z,30.90
2018-12-01T11:45:28.314Z,29.37
2018-12-01T11:48:00.117Z,30.73
2018-12-01T11:50:30.890Z,32.10
2018-12-01T11:53:00.975Z,30.70
2018-12-01T11:55:33.224Z,31.70
2018-12-01T11:58:03.315Z,30.00
2018-12-01T12:00:33.115Z,31.27
2018-12-01T12:03:04.145Z,32.30
2018-12-01T12:05:35.541Z,33.00
2018-12-01T12:08:23.693Z,31.67
2018-12-01T12:10:55.854Z,31.93
2018-12-01T12:13:28.375Z,31.80
2018-12-01T12:15:58.140Z,32.80
2018-12-01T12:18:28.888Z,32.83
2018-12-01T12:20:59.109Z,32.40
2018-12-01T12:23:30.240Z,30.50
2018-12-01T12:26:01.278Z,34.20
2018-12-01T12:28:31.376Z,31.70
2018-12-01T12:31:01.757Z,30.40
2018-12-01T12:33:32.512Z,31.40
2018-12-01T12:36:03.038Z,31.10
2018-12-01T12:38:33.936Z,32.30
2018-12-01T12:41:08.115Z,30.77
2018-12-01T12:43:42.939Z,29.83
2018-12-01T12:46:17.340Z,31.97
2018-12-01T12:48:48.381Z,30.43
2018-12-01T12:51:19.804Z,29.90
2018-12-01T12:53:49.752Z,30.17
2018-12-01T12:56:20.081Z,28.93
2018-12-01T12:58:51.257Z,29.77
2018-12-01T13:01:21.487Z,30.43
2018-12-01T13:03:53.726Z,30.30
2018-12-01T13:06:25.477Z,31.13
2018-12-01T13:08:56.717Z,30.37
2018-12-01T13:11:30.898Z,30.40
2018-12-01T13:14:02.429Z,30.60
2018-12-01T13:16:32.409Z,31.30
2018-12-01T13:19:05.782Z,31.80
2018-12-01T13:21:37.416Z,31.30
2018-12-01T13:24:07.499Z,33.47
2018-12-01T13:26:37.733Z,31.40
2018-12-01T13:29:10.107Z,31.27
2018-12-01T13:31:43.289Z,31.87
2018-12-01T13:34:18.311Z,30.80
2018-12-01T13:36:53.222Z,33.17
2018-12-01T13:39:24.447Z,33.40
2018-12-01T13:41:56.563Z,32.70
2018-12-01T13:44:27.603Z,33.60
2018-12-01T13:46:57.495Z,34.13
2018-12-01T13:49:27.507Z,34.93
2018-12-01T13:51:58.424Z,34.53
2018-12-01T13:54:28.446Z,34.90
2018-12-01T13:57:01.321Z,32.43
2018-12-01T13:59:36.814Z,32.23
2018-12-01T14:02:08.169Z,33.67
2018-12-01T14:04:42.482Z,34.13
2018-12-01T14:07:14.905Z,33.47
2018-12-01T14:09:44.547Z,32.60
2018-12-01T14:12:16.112Z,33.27
2018-12-01T14:14:47.716Z,33.53
2018-12-01T14:17:20.231Z,32.47
2018-12-01T14:19:51.586Z,32.20
2018-12-01T14:22:22.349Z,34.07
2018-12-01T14:24:53.811Z,34.23
2018-12-01T14:27:25.587Z,34.00
2018-12-01T14:29:58.712Z,32.07
2018-12-01T14:32:31.938Z,33.10
2018-12-01T14:35:04.701Z,32.63
2018-12-01T14:37:34.676Z,35.00
2018-12-01T14:40:06.611Z,31.50
2018-12-01T14:42:36.324Z,34.60
2018-12-01T14:45:08.972Z,34.40
2018-12-01T14:47:40.511Z,32.50
2018-12-01T14:50:13.733Z,35.87
2018-12-01T14:52:44.326Z,34.40
2018-12-01T14:55:17.889Z,33.37
2018-12-01T14:57:49.334Z,35.70
2018-12-01T15:00:24.115Z,35.37
2018-12-01T15:02:56.058Z,34.33
2018-12-01T15:05:26.548Z,35.47
2018-12-01T15:07:56.229Z,34.50
2018-12-01T15:10:28.081Z,35.07
2018-12-01T15:13:02.606Z,33.67
2018-12-01T15:15:34.136Z,32.23
2018-12-01T15:18:04.146Z,34.43
2018-12-01T15:20:35.571Z,34.50
2018-12-01T15:23:12.361Z,35.53
2018-12-01T15:25:42.792Z,37.20
2018-12-01T15:28:13.723Z,34.80
2018-12-01T15:30:44.249Z,33.37
2018-12-01T15:33:15.470Z,33.23
2018-12-01T15:35:47.018Z,32.60
2018-12-01T15:38:21.922Z,34.80
2018-12-01T15:40:54.046Z,37.17
2018-12-01T15:43:26.058Z,34.83
2018-12-01T15:45:56.048Z,34.13
2018-12-01T15:48:31.352Z,31.97
2018-12-01T15:51:06.659Z,34.83
2018-12-01T15:53:37.383Z,33.77
2018-12-01T15:56:07.419Z,33.40
2018-12-01T15:58:38.827Z,35.40
2018-12-01T16:01:08.711Z,34.23
2018-12-01T16:03:39.351Z,34.40
2018-12-01T16:06:09.256Z,34.70
2018-12-01T16:08:40.236Z,34.30
2018-12-01T16:11:12.251Z,35.90
2018-12-01T16:13:49.646Z,33.93
2018-12-01T16:16:22.193Z,31.70
2018-12-01T16:18:53.187Z,33.57
2018-12-01T16:21:25.323Z,34.50
2018-12-01T16:23:58.112Z,36.37
2018-12-01T16:26:29.359Z,35.87
2018-12-01T16:29:02.801Z,35.33
2018-12-01T16:31:37.109Z,33.60
2018-12-01T16:34:10.476Z,32.73
2018-12-01T16:36:42.437Z,33.80
2018-12-01T16:39:13.228Z,35.70
2018-12-01T16:41:46.351Z,35.63
2018-12-01T16:44:17.061Z,36.30
2018-12-01T16:46:47.550Z,36.67
2018-12-01T16:49:18.266Z,37.67
2018-12-01T16:51:53.658Z,37.80
2018-12-01T16:54:27.586Z,36.40
2018-12-01T16:56:59.538Z,37.93
2018-12-01T16:59:34.862Z,37.03
2018-12-01T17:02:07.203Z,37.40
2018-12-01T17:04:37.538Z,37.70
2018-12-01T17:07:08.717Z,36.37
2018-12-01T17:09:38.611Z,35.10
2018-12-01T17:12:09.680Z,36.27
2018-12-01T17:14:40.574Z,35.40
2018-12-01T17:17:11.068Z,34.87
2018-12-01T17:19:41.839Z,33.70
2018-12-01T17:22:12.434Z,37.00
2018-12-01T17:24:48.159Z,37.00
2018-12-01T17:27:22.093Z,37.73
2018-12-01T17:29:53.455Z,39.90
2018-12-01T17:32:26.725Z,35.70
2018-12-01T17:34:56.682Z,34.47
2018-12-01T17:37:28.665Z,34.47
2018-12-01T17:40:01.204Z,34.97
2018-12-01T17:42:33.170Z,35.60
2018-12-01T17:45:03.612Z,35.33
2018-12-01T17:47:34.630Z,34.70
2018-12-01T17:50:11.913Z,34.87
2018-12-01T17:52:45.199Z,34.70
2018-12-01T17:55:17.712Z,35.40
2018-12-01T17:57:49.725Z,36.40
2018-12-01T18:00:20.981Z,38.07
2018-12-01T18:02:54.419Z,37.53
2018-12-01T18:05:35.327Z,35.37
2018-12-01T18:08:07.482Z,39.43
2018-12-01T18:10:40.768Z,37.30
2018-12-01T18:13:13.033Z,36.70
2018-12-01T18:15:43.823Z,36.27
2018-12-01T18:18:14.732Z,37.70
2018-12-01T18:20:45.151Z,36.67
2018-12-01T18:23:17.586Z,37.07
2018-12-01T18:25:52.010Z,37.43
2018-12-01T18:28:32.501Z,36.90
2018-12-01T18:31:05.721Z,37.30
2018-12-01T18:33:40.118Z,36.73
2018-12-01T18:36:12.812Z,36.43
2018-12-01T18:38:46.581Z,36.37
2018-12-01T18:41:18.867Z,38.63
2018-12-01T18:43:50.984Z,38.17
2018-12-01T18:46:22.711Z,35.80
2018-12-01T18:48:54.733Z,37.97
2018-12-01T18:51:26.461Z,40.30
2018-12-01T18:54:00.505Z,39.70
2018-12-01T18:56:32.711Z,38.57
2018-12-01T18:59:02.971Z,41.43
2018-12-01T19:01:34.462Z,42.87
2018-12-01T19:04:04.132Z,42.00
2018-12-01T19:06:34.499Z,38.33
2018-12-01T19:09:06.605Z,39.77
2018-12-01T19:11:38.867Z,39.37
2018-12-01T19:14:14.265Z,37.13
2018-12-01T19:16:46.133Z,39.93
2018-12-01T19:19:21.347Z,39.73
2018-12-01T19:21:53.097Z,38.37
2018-12-01T19:24:23.450Z,40.20
2018-12-01T19:26:54.202Z,40.20
2018-12-01T19:29:24.605Z,39.70
2018-12-01T19:31:55.130Z,41.33
2018-12-01T19:34:25.112Z,37.60
2018-12-01T19:36:56.474Z,41.80
2018-12-01T19:39:27.350Z,40.53
2018-12-01T19:41:57.943Z,42.33
2018-12-01T19:44:28.033Z,45.37
2018-12-01T19:46:59.115Z,41.57
2018-12-01T19:49:29.814Z,42.07
2018-12-01T19:52:01.586Z,42.30
2018-12-01T19:54:32.148Z,43.80
2018-12-01T19:57:02.775Z,41.53
2018-12-01T19:59:33.005Z,40.97
2018-12-01T20:02:03.358Z,41.50
2018-12-01T20:04:33.788Z,43.90
2018-12-01T20:07:05.270Z,43.87
2018-12-01T20:09:40.015Z,43.17
2018-12-01T20:12:11.675Z,44.70
2018-12-01T20:14:45.231Z,42.70
2018-12-01T20:17:15.243Z,44.00
2018-12-01T20:19:46.320Z,44.37
2018-12-01T20:22:16.489Z,45.60
2018-12-01T20:24:46.219Z,44.70
2018-12-01T20:27:17.359Z,45.30
2018-12-01T20:29:47.518Z,44.60
2018-12-01T20:32:18.246Z,43.40
2018-12-01T20:34:56.636Z,44.83
2018-12-01T20:37:29.352Z,46.80
2018-12-01T20:39:59.381Z,44.53
2018-12-01T20:42:29.270Z,45.27
2018-12-01T20:45:02.144Z,43.43
2018-12-01T20:47:34.643Z,46.90
2018-12-01T20:50:10.299Z,47.43
2018-12-01T20:52:51.810Z,44.10
2018-12-01T20:55:25.030Z,43.43
2018-12-01T20:57:59.443Z,47.20
2018-12-01T21:00:32.524Z,46.13
2018-12-01T21:03:04.688Z,47.20
2018-12-01T21:05:36.427Z,46.73
2018-12-01T21:08:09.687Z,45.50
2018-12-01T21:10:42.735Z,48.40
2018-12-01T21:13:14.886Z,46.40
2018-12-01T21:15:44.491Z,46.93
2018-12-01T21:18:14.574Z,48.97
2018-12-01T21:20:45.425Z,49.10
2018-12-01T21:23:16.537Z,49.40
2018-12-01T21:25:50.638Z,48.03
2018-12-01T21:28:22.852Z,50.57
2018-12-01T21:30:54.220Z,47.63
2018-12-01T21:34:52.356Z,49.37
2018-12-01T21:37:22.698Z,47.83
2018-12-01T21:39:54.598Z,48.23
2018-12-01T21:42:29.565Z,48.63
2018-12-01T21:45:02.889Z,49.37
2018-12-01T21:47:32.648Z,50.10
2018-12-01T21:50:02.647Z,49.57
2018-12-01T21:52:33.876Z,49.47
2018-12-01T21:55:06.546Z,50.13
2018-12-01T21:57:45.446Z,49.10
2018-12-01T22:00:21.957Z,47.53
2018-12-01T22:02:55.903Z,48.70
2018-12-01T22:05:32.787Z,50.20
2018-12-01T22:08:07.952Z,50.07
2018-12-01T22:10:41.796Z,48.57
2018-12-01T22:13:15.941Z,49.00
2018-12-01T22:15:47.916Z,49.67
2018-12-01T22:18:18.728Z,47.93
2018-12-01T22:20:48.653Z,47.60
2018-12-01T22:23:20.490Z,49.77
2018-12-01T22:25:51.470Z,48.97
2018-12-01T22:28:21.941Z,48.60
2018-12-01T22:30:53.209Z,49.80
2018-12-01T22:33:26.077Z,47.33
2018-12-01T22:35:56.574Z,47.07
2018-12-01T22:38:30.449Z,49.00
2018-12-01T22:41:06.951Z,46.47
2018-12-01T22:43:38.186Z,47.73
2018-12-01T22:46:09.141Z,50.27
2018-12-01T22:48:39.842Z,47.77
2018-12-01T22:51:13.554Z,48.83
2018-12-01T22:53:50.245Z,48.07
2018-12-01T22:56:28.766Z,50.83
2018-12-01T22:58:55.160Z,46.47
2018-12-01T23:01:26.005Z,47.23
2018-12-01T23:03:56.738Z,49.13
2018-12-01T23:06:30.067Z,48.80
2018-12-01T23:09:00.660Z,51.47
2018-12-01T23:11:31.643Z,48.87
2018-12-01T23:14:02.529Z,49.67
2018-12-01T23:16:32.827Z,49.63
2018-12-01T23:19:02.629Z,49.83
2018-12-01T23:21:33.767Z,50.90
2018-12-01T23:24:04.176Z,50.53
2018-12-01T23:26:37.202Z,49.73
2018-12-01T23:29:08.040Z,50.43
2018-12-01T23:31:38.764Z,50.30
2018-12-01T23:34:11.388Z,50.10
2018-12-01T23:36:44.078Z,48.83
2018-12-01T23:39:17.729Z,47.87
2018-12-01T23:41:49.316Z,50.53
2018-12-01T23:44:27.508Z,46.13
2018-12-01T23:46:57.408Z,50.33
2018-12-01T23:49:31.485Z,50.93
2018-12-01T23:52:02.618Z,46.37
2018-12-01T23:54:33.376Z,49.13
2018-12-01T23:57:03.159Z,49.07
2018-12-01T23:59:34.237Z,49.17
